OOCL Long Beach — VRYO4 — position and weather

sailwx.info

Track history (hours):
 
Tides and Currents Weather Stations Pressure Air Temp Water Temp Dewpoint Dewpoint Depression Visibility Wind Speed Wind Dir Waves Ship Positions

OOCL Long Beach

Last reported at 2016-May-27 09:32 UTC. Time now 2016-May-31 02:08 UTC.
Position N 31°14' E 122°04'.

Length 323 m; beam 42.8 m; draft 14.5 m.

Type: Cargo ship. MMSI: 477316000.

Date/timePositionNaut miles runAvg speedWind from/ knotsBaromVisibWave heightAir tempDewpointWater temp
2016-May-27 09:32N 31°14' E 122°04'1110.8
2016-May-27 08:33N 31°16' E 121°52'11 9.9
2016-May-27 07:26N 31°21' E 121°40'5 5.8
2016-May-27 06:34N 31°23' E 121°35'0 0.0
2016-May-27 05:27N 31°23' E 121°35'0 0.0
2016-May-27 04:27N 31°23' E 121°35'0 0.0
2016-May-27 03:33N 31°23' E 121°35'0 0.0
2016-May-27 02:30N 31°23' E 121°35'0 0.0
2016-May-27 01:33N 31°23' E 121°35'0 0.0
2016-May-27 00:33N 31°23' E 121°35'0 0.0
2016-May-26 23:33N 31°23' E 121°35'0 0.0
2016-May-26 22:30N 31°23' E 121°35'0 0.0
2016-May-26 21:30N 31°23' E 121°35'0 0.0
2016-May-26 18:33N 31°23' E 121°35'0 0.0
2016-May-26 17:32N 31°23' E 121°35'1 0.7
2016-May-26 16:32N 31°23' E 121°34'0 0.2
2016-May-26 15:33N 31°23' E 121°34'0 0.1
2016-May-26 14:33N 31°23' E 121°34'0 0.0
2016-May-26 13:33N 31°23' E 121°34'0 0.0
2016-May-26 12:33N 31°23' E 121°34'0 0.0
2016-May-26 11:33N 31°23' E 121°34'0 0.1
2016-May-26 10:33N 31°23' E 121°34'0 0.1
2016-May-26 09:33N 31°23' E 121°34'0 0.3
2016-May-26 08:33N 31°23' E 121°34'0 0.1
2016-May-26 07:33N 31°23' E 121°34'0 0.2
2016-May-26 06:33N 31°23' E 121°34'6 5.6
2016-May-26 05:33N 31°21' E 121°40'7 6.5
2016-May-26 04:33N 31°18' E 121°47'10 9.4
2016-May-26 03:30N 31°15' E 121°58'1011.1
2016-May-26 02:33N 31°12' E 122°09'34 1.2
2016-May-24 21:23N 31°06' E 122°48'0 0.1
2016-May-24 15:17N 31°06' E 122°48'0 0.1
2016-May-24 14:32N 31°06' E 122°48'28 0.8
2016-May-23 03:10N 30°40' E 123°00'7 9.7
2016-May-23 02:26N 30°33' E 123°00'8 9.3
2016-May-23 01:33N 30°25' E 123°00'41 7.7
2016-May-22 20:17N 29°47' E 122°43'5 7.0
2016-May-22 19:29N 29°43' E 122°39'7 7.6
2016-May-22 18:31N 29°41' E 122°31'1010.3
2016-May-22 17:33N 29°44' E 122°20'1110.8
2016-May-22 16:33N 29°52' E 122°12'1313.1
2016-May-22 15:33N 29°58' E 121°58'7 0.9
2016-May-22 07:18N 29°57' E 121°50'0 0.0
2016-May-22 06:32N 29°57' E 121°50'6 5.9
2016-May-22 05:33N 29°58' E 121°57'1313.0
2016-May-22 04:33N 29°54' E 122°11'1111.3
2016-May-22 03:33N 29°45' E 122°19'7 0.2
2016-May-20 20:24N 29°39' E 122°24'  
Track history (hours):
 
Tides and Currents Weather Stations Pressure Air Temp Water Temp Dewpoint Dewpoint Depression Visibility Wind Speed Wind Dir Waves Ship Positions

OOCL Long Beach

Last reported at 2016-May-27 09:32 UTC. Time now 2016-May-31 02:08 UTC.
Position N 31°14' E 122°04'.

Length 323 m; beam 42.8 m; draft 14.5 m.

Type: Cargo ship. MMSI: 477316000.

Date/timePositionNaut miles runAvg speedWind from/ knotsBaromVisibWave heightAir tempDewpointWater temp
2016-May-27 09:32N 31°14' E 122°04'1110.8
2016-May-27 08:33N 31°16' E 121°52'11 9.9
2016-May-27 07:26N 31°21' E 121°40'5 5.8
2016-May-27 06:34N 31°23' E 121°35'0 0.0
2016-May-27 05:27N 31°23' E 121°35'0 0.0
2016-May-27 04:27N 31°23' E 121°35'0 0.0
2016-May-27 03:33N 31°23' E 121°35'0 0.0
2016-May-27 02:30N 31°23' E 121°35'0 0.0
2016-May-27 01:33N 31°23' E 121°35'0 0.0
2016-May-27 00:33N 31°23' E 121°35'0 0.0
2016-May-26 23:33N 31°23' E 121°35'0 0.0
2016-May-26 22:30N 31°23' E 121°35'0 0.0
2016-May-26 21:30N 31°23' E 121°35'0 0.0
2016-May-26 18:33N 31°23' E 121°35'0 0.0
2016-May-26 17:32N 31°23' E 121°35'1 0.7
2016-May-26 16:32N 31°23' E 121°34'0 0.2
2016-May-26 15:33N 31°23' E 121°34'0 0.1
2016-May-26 14:33N 31°23' E 121°34'0 0.0
2016-May-26 13:33N 31°23' E 121°34'0 0.0
2016-May-26 12:33N 31°23' E 121°34'0 0.0
2016-May-26 11:33N 31°23' E 121°34'0 0.1
2016-May-26 10:33N 31°23' E 121°34'0 0.1
2016-May-26 09:33N 31°23' E 121°34'0 0.3
2016-May-26 08:33N 31°23' E 121°34'0 0.1
2016-May-26 07:33N 31°23' E 121°34'0 0.2
2016-May-26 06:33N 31°23' E 121°34'6 5.6
2016-May-26 05:33N 31°21' E 121°40'7 6.5
2016-May-26 04:33N 31°18' E 121°47'10 9.4
2016-May-26 03:30N 31°15' E 121°58'1011.1
2016-May-26 02:33N 31°12' E 122°09'34 1.2
2016-May-24 21:23N 31°06' E 122°48'0 0.1
2016-May-24 15:17N 31°06' E 122°48'0 0.1
2016-May-24 14:32N 31°06' E 122°48'28 0.8
2016-May-23 03:10N 30°40' E 123°00'7 9.7
2016-May-23 02:26N 30°33' E 123°00'8 9.3
2016-May-23 01:33N 30°25' E 123°00'41 7.7
2016-May-22 20:17N 29°47' E 122°43'5 7.0
2016-May-22 19:29N 29°43' E 122°39'7 7.6
2016-May-22 18:31N 29°41' E 122°31'1010.3
2016-May-22 17:33N 29°44' E 122°20'1110.8
2016-May-22 16:33N 29°52' E 122°12'1313.1
2016-May-22 15:33N 29°58' E 121°58'7 0.9
2016-May-22 07:18N 29°57' E 121°50'0 0.0
2016-May-22 06:32N 29°57' E 121°50'6 5.9
2016-May-22 05:33N 29°58' E 121°57'1313.0
2016-May-22 04:33N 29°54' E 122°11'1111.3
2016-May-22 03:33N 29°45' E 122°19'7 0.2
2016-May-20 20:24N 29°39' E 122°24'  

Dump ship's entire track history